createdAt,value
2023-05-23T00:01:38.098Z,17.08
2023-05-23T00:04:17.580Z,17.09
2023-05-23T00:06:51.907Z,17.09
2023-05-23T00:09:26.796Z,17.08
2023-05-23T00:12:04.162Z,17.09
2023-05-23T00:14:37.764Z,17.07
2023-05-23T00:17:12.587Z,17.04
2023-05-23T00:19:47.228Z,17.01
2023-05-23T00:22:21.316Z,16.98
2023-05-23T00:24:54.816Z,16.95
2023-05-23T00:27:28.956Z,16.91
2023-05-23T00:30:02.659Z,16.86
2023-05-23T00:32:36.945Z,16.81
2023-05-23T00:35:12.326Z,16.79
2023-05-23T00:37:45.938Z,16.78
2023-05-23T00:40:19.907Z,16.79
2023-05-23T00:42:53.919Z,16.80
2023-05-23T00:45:28.144Z,16.81
2023-05-23T00:48:02.430Z,16.81
2023-05-23T00:50:37.021Z,16.81
2023-05-23T00:53:10.424Z,16.78
2023-05-23T00:55:45.933Z,16.75
2023-05-23T00:58:20.133Z,16.71
2023-05-23T01:00:54.951Z,16.70
2023-05-23T01:03:29.098Z,16.67
2023-05-23T01:06:03.063Z,16.63
2023-05-23T01:08:36.909Z,16.60
2023-05-23T01:11:16.368Z,16.57
2023-05-23T01:14:01.659Z,16.56
2023-05-23T01:16:44.060Z,16.55
2023-05-23T01:19:43.410Z,16.54
2023-05-23T01:22:25.493Z,16.54
2023-05-23T01:25:09.400Z,16.54
2023-05-23T01:27:57.816Z,16.52
2023-05-23T01:30:37.057Z,16.50
2023-05-23T01:33:12.871Z,16.47
2023-05-23T01:35:46.851Z,16.43
2023-05-23T01:38:21.468Z,16.39
2023-05-23T01:40:55.175Z,16.35
2023-05-23T01:43:28.701Z,16.31
2023-05-23T01:46:03.388Z,16.28
2023-05-23T01:48:37.963Z,16.23
2023-05-23T01:51:12.149Z,16.16
2023-05-23T01:53:47.241Z,16.12
2023-05-23T01:56:21.972Z,16.10
2023-05-23T01:58:55.679Z,16.09
2023-05-23T02:01:29.462Z,16.08
2023-05-23T02:04:05.532Z,16.09
2023-05-23T02:06:39.215Z,16.08
2023-05-23T02:09:13.109Z,16.06
2023-05-23T02:11:46.722Z,16.06
2023-05-23T02:14:20.719Z,16.04
2023-05-23T02:16:54.463Z,16.00
2023-05-23T02:19:28.644Z,15.97
2023-05-23T02:22:04.094Z,15.94
2023-05-23T02:24:38.060Z,15.94
2023-05-23T02:27:12.698Z,15.92
2023-05-23T02:29:46.383Z,15.90
2023-05-23T02:32:19.988Z,15.90
2023-05-23T02:34:55.113Z,15.86
2023-05-23T02:37:31.030Z,15.84
2023-05-23T02:40:05.194Z,15.82
2023-05-23T02:42:38.922Z,15.79
2023-05-23T02:45:14.627Z,15.75
2023-05-23T02:47:48.081Z,15.76
2023-05-23T02:50:21.864Z,15.79
2023-05-23T02:52:55.845Z,15.81
2023-05-23T02:55:33.161Z,15.85
2023-05-23T02:58:07.494Z,15.89
2023-05-23T03:00:44.475Z,15.90
2023-05-23T03:03:18.916Z,15.92
2023-05-23T03:05:52.778Z,15.92
2023-05-23T03:08:26.402Z,15.93
2023-05-23T03:10:59.894Z,15.93
2023-05-23T03:13:33.946Z,15.93
2023-05-23T03:16:08.538Z,15.94
2023-05-23T03:18:43.370Z,15.94
2023-05-23T03:21:17.229Z,15.94
2023-05-23T03:23:51.629Z,15.94
2023-05-23T03:26:25.694Z,15.94
2023-05-23T03:28:59.775Z,15.94
2023-05-23T03:31:33.427Z,15.94
2023-05-23T03:34:07.181Z,15.96
2023-05-23T03:36:41.830Z,16.00
2023-05-23T03:39:16.420Z,16.05
2023-05-23T03:41:54.096Z,16.09
2023-05-23T03:44:27.848Z,16.14
2023-05-23T03:47:02.376Z,16.16
2023-05-23T03:49:36.604Z,16.19
2023-05-23T03:52:10.821Z,16.20
2023-05-23T03:54:45.036Z,16.24
2023-05-23T03:57:19.655Z,16.28
2023-05-23T03:59:53.973Z,16.31
2023-05-23T04:02:27.959Z,16.35
2023-05-23T04:05:22.721Z,16.40
2023-05-23T04:07:57.482Z,16.43
2023-05-23T04:10:30.844Z,16.47
2023-05-23T04:13:05.675Z,16.50
2023-05-23T04:15:40.322Z,16.53
2023-05-23T04:18:17.923Z,16.60
2023-05-23T04:20:51.765Z,16.69
2023-05-23T04:23:25.630Z,16.77
2023-05-23T04:26:00.782Z,16.83
2023-05-23T04:28:44.812Z,16.89
2023-05-23T04:31:19.570Z,16.95
2023-05-23T04:33:53.428Z,17.03
2023-05-23T04:36:27.834Z,17.11
2023-05-23T04:39:02.559Z,17.21
2023-05-23T04:41:40.510Z,17.30
2023-05-23T04:44:37.917Z,17.41
2023-05-23T04:47:19.609Z,17.52
2023-05-23T04:50:15.363Z,17.61
2023-05-23T04:52:49.457Z,17.69
2023-05-23T04:55:23.605Z,17.79
2023-05-23T04:57:57.689Z,17.91
2023-05-23T05:00:31.997Z,18.03
2023-05-23T05:03:05.863Z,18.12
2023-05-23T05:05:39.821Z,18.19
2023-05-23T05:08:14.792Z,18.27
2023-05-23T05:10:49.015Z,18.58
2023-05-23T05:13:24.722Z,19.03
2023-05-23T05:16:01.511Z,19.33
2023-05-23T05:18:36.001Z,19.68
2023-05-23T05:21:09.830Z,20.55
2023-05-23T05:23:45.048Z,21.26
2023-05-23T05:26:21.942Z,21.70
2023-05-23T05:28:57.394Z,21.80
2023-05-23T05:31:31.048Z,22.10
2023-05-23T05:34:04.790Z,23.21
2023-05-23T05:36:39.356Z,23.93
2023-05-23T05:39:14.562Z,24.04
2023-05-23T05:41:48.571Z,23.97
2023-05-23T05:44:22.425Z,23.67
2023-05-23T05:46:57.930Z,23.41
2023-05-23T05:49:32.666Z,23.68
2023-05-23T05:52:07.300Z,23.59
2023-05-23T05:54:41.333Z,23.32
2023-05-23T05:57:15.406Z,23.34
2023-05-23T05:59:49.382Z,23.66
2023-05-23T06:02:23.700Z,24.09
2023-05-23T06:04:57.486Z,24.05
2023-05-23T06:07:31.335Z,23.97
2023-05-23T06:10:05.484Z,24.00
2023-05-23T06:12:39.483Z,23.77
2023-05-23T06:15:16.376Z,23.59
2023-05-23T06:17:50.213Z,23.40
2023-05-23T06:20:24.049Z,23.23
2023-05-23T06:22:58.548Z,23.12
2023-05-23T06:25:32.858Z,23.00
2023-05-23T06:28:06.930Z,22.96
2023-05-23T06:30:41.464Z,22.91
2023-05-23T06:33:15.378Z,22.88
2023-05-23T06:35:49.667Z,22.87
2023-05-23T06:38:23.384Z,23.27
2023-05-23T06:40:57.503Z,24.15
2023-05-23T06:43:31.341Z,24.62
2023-05-23T06:46:26.120Z,25.14
2023-05-23T06:49:13.855Z,25.81
2023-05-23T06:51:49.914Z,27.13
2023-05-23T06:54:23.905Z,29.47
2023-05-23T06:56:57.903Z,32.06
2023-05-23T06:59:32.643Z,33.67
2023-05-23T07:02:08.075Z,34.37
2023-05-23T07:04:42.146Z,34.92
2023-05-23T07:07:21.430Z,34.69
2023-05-23T07:09:54.904Z,34.14
2023-05-23T07:12:29.738Z,33.72
2023-05-23T07:15:03.303Z,33.35
2023-05-23T07:17:37.341Z,32.77
2023-05-23T07:20:13.379Z,31.70
2023-05-23T07:22:52.051Z,30.93
2023-05-23T07:25:25.691Z,30.25
2023-05-23T07:28:00.199Z,30.02
2023-05-23T07:30:34.207Z,30.10
2023-05-23T07:33:08.232Z,30.12
2023-05-23T07:35:46.106Z,30.03
2023-05-23T07:38:20.105Z,29.66
2023-05-23T07:41:03.028Z,29.49
2023-05-23T07:43:44.539Z,29.10
2023-05-23T07:46:18.718Z,28.55
2023-05-23T07:48:52.689Z,28.11
2023-05-23T07:51:26.474Z,27.79
2023-05-23T07:54:00.577Z,27.51
2023-05-23T07:56:34.460Z,27.23
2023-05-23T07:59:08.877Z,26.96
2023-05-23T08:01:45.138Z,26.99
2023-05-23T08:04:24.442Z,26.99
2023-05-23T08:09:42.649Z,27.26
2023-05-23T08:12:18.533Z,27.32
2023-05-23T08:14:53.424Z,27.16
2023-05-23T08:17:30.800Z,26.95
2023-05-23T08:20:05.753Z,26.94
2023-05-23T08:22:40.170Z,26.86
2023-05-23T08:25:14.522Z,26.88
2023-05-23T08:27:48.420Z,27.04
2023-05-23T08:30:45.378Z,27.00
2023-05-23T08:33:19.106Z,27.07
2023-05-23T08:35:54.131Z,27.16
2023-05-23T08:38:28.090Z,27.07
2023-05-23T08:41:18.832Z,26.96
2023-05-23T08:43:53.335Z,26.95
2023-05-23T08:46:36.047Z,26.91
2023-05-23T08:49:12.529Z,26.78
2023-05-23T08:51:48.934Z,26.74
2023-05-23T08:54:27.541Z,26.83
2023-05-23T08:57:01.633Z,26.98
2023-05-23T08:59:37.153Z,27.38
2023-05-23T09:02:15.011Z,28.05
2023-05-23T09:04:48.667Z,28.35
2023-05-23T09:07:27.536Z,28.52
2023-05-23T09:10:01.879Z,28.43
2023-05-23T09:12:36.900Z,28.31
2023-05-23T09:15:12.802Z,28.66
2023-05-23T09:17:47.344Z,28.98
2023-05-23T09:20:21.961Z,29.19
2023-05-23T09:23:02.960Z,29.09
2023-05-23T09:25:42.222Z,29.05
2023-05-23T09:28:16.852Z,28.99
2023-05-23T09:30:50.695Z,28.96
2023-05-23T09:33:30.679Z,28.57
2023-05-23T09:36:05.095Z,28.23
2023-05-23T09:38:41.862Z,27.91
2023-05-23T09:41:16.453Z,27.66
2023-05-23T09:44:01.830Z,27.41
2023-05-23T09:46:39.871Z,27.23
2023-05-23T09:49:22.758Z,27.18
2023-05-23T09:52:03.312Z,27.23
2023-05-23T09:54:37.086Z,27.16
2023-05-23T09:57:13.543Z,27.11
2023-05-23T09:59:56.430Z,27.02
2023-05-23T10:03:00.393Z,26.83
2023-05-23T10:05:40.637Z,27.17
2023-05-23T10:08:20.570Z,27.46
2023-05-23T10:14:15.939Z,28.18
2023-05-23T10:17:01.488Z,28.16
2023-05-23T10:19:40.704Z,28.56
2023-05-23T10:22:17.207Z,28.72
2023-05-23T10:24:52.256Z,28.55
2023-05-23T10:27:26.250Z,28.19
2023-05-23T10:30:00.899Z,27.97
2023-05-23T10:32:36.138Z,28.12
2023-05-23T10:35:16.311Z,28.30
2023-05-23T10:37:57.926Z,28.53
2023-05-23T10:40:45.274Z,28.69
2023-05-23T10:43:26.806Z,28.81
2023-05-23T10:46:01.615Z,28.82
2023-05-23T10:48:43.349Z,28.99
2023-05-23T10:51:17.831Z,29.15
2023-05-23T10:53:56.801Z,29.27
2023-05-23T10:56:37.641Z,30.14
2023-05-23T10:59:22.114Z,30.86
2023-05-23T11:01:57.624Z,30.83
2023-05-23T11:04:32.207Z,30.57
2023-05-23T11:07:06.300Z,30.20
2023-05-23T11:10:01.022Z,29.83
2023-05-23T11:12:42.864Z,29.31
2023-05-23T11:15:45.495Z,28.88
2023-05-23T11:18:28.713Z,28.74
2023-05-23T11:21:05.035Z,28.64
2023-05-23T11:23:45.218Z,28.35
2023-05-23T11:26:34.682Z,28.06
2023-05-23T11:29:12.846Z,28.13
2023-05-23T11:31:45.045Z,28.39
2023-05-23T11:34:19.744Z,28.57
2023-05-23T11:36:58.447Z,28.65
2023-05-23T11:39:32.296Z,28.60
2023-05-23T11:42:07.416Z,28.40
2023-05-23T11:44:41.344Z,28.33
2023-05-23T11:47:14.903Z,28.36
2023-05-23T11:49:49.690Z,28.32
2023-05-23T11:52:23.749Z,28.33
2023-05-23T11:55:02.071Z,28.35
2023-05-23T11:57:39.668Z,28.48
2023-05-23T12:00:16.498Z,28.53
2023-05-23T12:02:50.709Z,28.52
2023-05-23T12:05:24.856Z,28.46
2023-05-23T12:08:01.707Z,28.40
2023-05-23T12:10:35.329Z,28.30
2023-05-23T12:13:09.337Z,28.12
2023-05-23T12:15:43.707Z,28.07
2023-05-23T12:18:17.863Z,27.88
2023-05-23T12:20:52.802Z,27.81
2023-05-23T12:23:28.784Z,27.88
2023-05-23T12:26:02.456Z,27.85
2023-05-23T12:28:45.557Z,27.67
2023-05-23T12:31:21.754Z,27.58
2023-05-23T12:33:56.735Z,27.43
2023-05-23T12:36:32.649Z,27.43
2023-05-23T12:39:08.003Z,27.46
2023-05-23T12:41:43.377Z,27.43
2023-05-23T12:44:21.067Z,27.54
2023-05-23T12:46:55.221Z,27.59
2023-05-23T12:49:28.817Z,27.66
2023-05-23T12:52:02.729Z,27.60
2023-05-23T12:54:36.544Z,27.46
2023-05-23T12:57:10.427Z,27.27
2023-05-23T12:59:44.199Z,27.17
2023-05-23T13:02:18.340Z,27.17
2023-05-23T13:04:52.900Z,27.14
2023-05-23T13:07:27.137Z,27.16
2023-05-23T13:10:01.379Z,27.24
2023-05-23T13:12:35.119Z,27.29
2023-05-23T13:15:10.824Z,27.28
2023-05-23T13:17:48.035Z,27.27
2023-05-23T13:20:24.048Z,27.38
2023-05-23T13:22:57.442Z,27.57
2023-05-23T13:25:31.328Z,27.70
2023-05-23T13:28:05.336Z,27.77
2023-05-23T13:30:39.351Z,27.70
2023-05-23T13:33:13.321Z,27.65
2023-05-23T13:35:49.700Z,27.62
2023-05-23T13:38:26.038Z,27.63
2023-05-23T13:41:00.939Z,27.73
2023-05-23T13:43:34.830Z,27.84
2023-05-23T13:46:09.599Z,27.85
2023-05-23T13:48:43.492Z,27.83
2023-05-23T13:51:17.290Z,27.65
2023-05-23T13:53:51.201Z,27.60
2023-05-23T13:56:26.434Z,27.58
2023-05-23T13:59:00.152Z,27.44
2023-05-23T14:01:34.029Z,27.34
2023-05-23T14:04:07.781Z,27.31
2023-05-23T14:06:42.255Z,27.32
2023-05-23T14:09:16.636Z,27.38
2023-05-23T14:11:52.163Z,27.42
2023-05-23T14:14:27.491Z,27.38
2023-05-23T14:17:01.739Z,27.36
2023-05-23T14:19:36.929Z,27.38
2023-05-23T14:22:11.846Z,27.39
2023-05-23T14:24:47.039Z,27.38
2023-05-23T14:27:21.162Z,27.36
2023-05-23T14:29:55.376Z,27.38
2023-05-23T14:32:29.055Z,27.38
2023-05-23T14:35:03.038Z,27.37
2023-05-23T14:37:37.012Z,27.32
2023-05-23T14:40:14.636Z,27.29
2023-05-23T14:42:49.580Z,27.21
2023-05-23T14:45:24.946Z,27.09
2023-05-23T14:47:59.360Z,26.92
2023-05-23T14:50:33.286Z,26.87
2023-05-23T14:53:07.054Z,26.84
2023-05-23T14:55:41.847Z,26.85
2023-05-23T14:58:16.223Z,26.84
2023-05-23T15:00:50.249Z,26.85
2023-05-23T15:03:24.535Z,26.89
2023-05-23T15:05:58.715Z,26.93
2023-05-23T15:08:32.824Z,26.95
2023-05-23T15:11:06.552Z,26.98
2023-05-23T15:13:40.310Z,26.95
2023-05-23T15:16:14.966Z,26.92
2023-05-23T15:18:49.766Z,26.86
2023-05-23T15:21:24.216Z,26.76
2023-05-23T15:23:59.353Z,26.74
2023-05-23T15:26:33.671Z,26.80
2023-05-23T15:29:07.929Z,26.83
2023-05-23T15:31:45.412Z,26.82
2023-05-23T15:34:19.392Z,26.85
2023-05-23T15:36:53.581Z,26.88
2023-05-23T15:39:28.453Z,26.90
2023-05-23T15:42:03.743Z,26.92
2023-05-23T15:44:38.322Z,26.91
2023-05-23T15:47:13.070Z,26.86
2023-05-23T15:49:47.467Z,26.77
2023-05-23T15:52:21.475Z,26.73
2023-05-23T15:54:55.241Z,26.69
2023-05-23T15:57:28.773Z,26.69
2023-05-23T16:00:02.471Z,26.69
2023-05-23T16:02:47.199Z,26.66
2023-05-23T16:05:21.876Z,26.62
2023-05-23T16:07:56.827Z,26.61
2023-05-23T16:10:31.561Z,26.60
2023-05-23T16:13:05.902Z,26.59
2023-05-23T16:15:40.533Z,26.55
2023-05-23T16:18:16.196Z,26.50
2023-05-23T16:20:50.373Z,26.43
2023-05-23T16:23:23.922Z,26.37
2023-05-23T16:25:57.882Z,26.29
2023-05-23T16:28:32.199Z,26.22
2023-05-23T16:31:06.193Z,26.17
2023-05-23T16:33:39.933Z,26.10
2023-05-23T16:36:14.298Z,26.07
2023-05-23T16:38:48.366Z,26.03
2023-05-23T16:41:21.983Z,25.97
2023-05-23T16:43:56.062Z,25.91
2023-05-23T16:46:29.995Z,25.86
2023-05-23T16:49:04.081Z,25.79
2023-05-23T16:51:38.619Z,25.71
2023-05-23T16:54:13.076Z,25.59
2023-05-23T16:56:47.238Z,25.54
2023-05-23T16:59:21.979Z,25.50
2023-05-23T17:01:56.491Z,25.48
2023-05-23T17:04:30.456Z,25.45
2023-05-23T17:07:04.203Z,25.41
2023-05-23T17:09:38.221Z,25.40
2023-05-23T17:12:12.831Z,25.37
2023-05-23T17:14:46.850Z,25.36
2023-05-23T17:17:21.497Z,25.28
2023-05-23T17:19:55.430Z,25.24
2023-05-23T17:22:31.159Z,25.22
2023-05-23T17:25:06.719Z,25.21
2023-05-23T17:27:41.432Z,25.17
2023-05-23T17:30:18.932Z,25.13
2023-05-23T17:32:53.429Z,25.09
2023-05-23T17:35:27.481Z,25.07
2023-05-23T17:38:02.805Z,25.01
2023-05-23T17:40:36.595Z,24.97
2023-05-23T17:43:10.292Z,24.93
2023-05-23T17:45:44.221Z,24.91
2023-05-23T17:48:18.952Z,24.89
2023-05-23T17:50:53.251Z,24.87
2023-05-23T17:53:28.540Z,24.84
2023-05-23T17:56:02.284Z,24.81
2023-05-23T17:58:36.736Z,24.77
2023-05-23T18:01:12.067Z,24.73
2023-05-23T18:03:49.583Z,24.70
2023-05-23T18:06:23.117Z,24.65
2023-05-23T18:08:57.266Z,24.59
2023-05-23T18:11:31.435Z,24.54
2023-05-23T18:14:05.906Z,24.50
2023-05-23T18:16:39.872Z,24.46
2023-05-23T18:19:13.760Z,24.42
2023-05-23T18:21:47.677Z,24.40
2023-05-23T18:24:21.915Z,24.37
2023-05-23T18:26:55.551Z,24.33
2023-05-23T18:29:29.258Z,24.30
2023-05-23T18:32:03.062Z,24.26
2023-05-23T18:34:38.169Z,24.22
2023-05-23T18:37:11.915Z,24.17
2023-05-23T18:39:45.601Z,24.13
2023-05-23T18:42:19.592Z,24.10
2023-05-23T18:44:53.972Z,24.06
2023-05-23T18:47:28.360Z,24.02
2023-05-23T18:50:02.157Z,23.98
2023-05-23T18:52:37.740Z,23.94
2023-05-23T18:55:13.276Z,23.90
2023-05-23T18:57:47.772Z,23.85
2023-05-23T19:00:22.490Z,23.80
2023-05-23T19:02:55.945Z,23.75
2023-05-23T19:05:29.906Z,23.71
2023-05-23T19:08:04.111Z,23.66
2023-05-23T19:10:37.922Z,23.61
2023-05-23T19:13:11.392Z,23.57
2023-05-23T19:15:46.058Z,23.52
2023-05-23T19:18:20.708Z,23.48
2023-05-23T19:20:55.316Z,23.45
2023-05-23T19:23:29.584Z,23.42
2023-05-23T19:26:03.770Z,23.38
2023-05-23T19:28:38.282Z,23.33
2023-05-23T19:31:12.735Z,23.29
2023-05-23T19:33:46.633Z,23.24
2023-05-23T19:36:20.403Z,23.19
2023-05-23T19:38:54.494Z,23.16
2023-05-23T19:41:28.799Z,23.14
2023-05-23T19:44:03.033Z,23.11
2023-05-23T19:46:37.366Z,23.08
2023-05-23T19:49:11.606Z,23.05
2023-05-23T19:51:45.508Z,23.03
2023-05-23T19:54:19.839Z,23.00
2023-05-23T19:56:53.358Z,22.96
2023-05-23T19:59:27.308Z,22.93
2023-05-23T20:02:03.677Z,22.91
2023-05-23T20:04:41.303Z,22.87
2023-05-23T20:07:15.426Z,22.84
2023-05-23T20:09:48.963Z,22.83
2023-05-23T20:12:22.867Z,22.81
2023-05-23T20:14:57.822Z,22.79
2023-05-23T20:17:31.805Z,22.77
2023-05-23T20:20:06.038Z,22.77
2023-05-23T20:22:39.996Z,22.75
2023-05-23T20:25:14.207Z,22.72
2023-05-23T20:27:48.255Z,22.70
2023-05-23T20:30:22.449Z,22.69
2023-05-23T20:32:56.417Z,22.67
2023-05-23T20:35:30.617Z,22.65
2023-05-23T20:38:04.612Z,22.64
2023-05-23T20:40:38.998Z,22.64
2023-05-23T20:43:15.592Z,22.62
2023-05-23T20:45:49.841Z,22.60
2023-05-23T20:48:23.532Z,22.57
2023-05-23T20:50:57.657Z,22.54
2023-05-23T20:53:31.990Z,22.53
2023-05-23T20:56:06.145Z,22.51
2023-05-23T20:58:40.439Z,22.48
2023-05-23T21:01:15.523Z,22.46
2023-05-23T21:03:49.413Z,22.45
2023-05-23T21:06:23.550Z,22.42
2023-05-23T21:08:57.242Z,22.41
2023-05-23T21:11:34.258Z,22.39
2023-05-23T21:14:08.095Z,22.38
2023-05-23T21:16:41.880Z,22.36
2023-05-23T21:19:15.944Z,22.33
2023-05-23T21:21:50.948Z,22.32
2023-05-23T21:24:25.412Z,22.31
2023-05-23T21:27:02.131Z,22.30
2023-05-23T21:29:35.679Z,22.29
2023-05-23T21:32:09.682Z,22.27
2023-05-23T21:34:43.680Z,22.26
2023-05-23T21:37:17.642Z,22.23
2023-05-23T21:39:52.569Z,22.21
2023-05-23T21:42:26.590Z,22.19
2023-05-23T21:45:00.433Z,22.17
2023-05-23T21:47:34.933Z,22.15
2023-05-23T21:50:10.372Z,22.12
2023-05-23T21:52:43.813Z,22.10
2023-05-23T21:55:17.213Z,22.08
2023-05-23T21:57:51.191Z,22.07
2023-05-23T22:00:27.571Z,22.05
2023-05-23T22:03:01.323Z,22.02
2023-05-23T22:05:35.097Z,22.01
2023-05-23T22:08:08.781Z,22.00
2023-05-23T22:10:43.528Z,21.98
2023-05-23T22:13:17.843Z,21.98
2023-05-23T22:15:54.865Z,21.96
2023-05-23T22:18:30.627Z,21.95
2023-05-23T22:21:09.609Z,21.94
2023-05-23T22:23:43.582Z,21.91
2023-05-23T22:26:18.098Z,21.91
2023-05-23T22:28:53.960Z,21.89
2023-05-23T22:31:29.230Z,21.87
2023-05-23T22:34:03.418Z,21.86
2023-05-23T22:36:36.968Z,21.83
2023-05-23T22:39:11.265Z,21.81
2023-05-23T22:41:45.677Z,21.80
2023-05-23T22:44:19.614Z,21.80
2023-05-23T22:46:53.876Z,21.81
2023-05-23T22:49:30.712Z,21.81
2023-05-23T22:52:04.352Z,21.80
2023-05-23T22:54:38.014Z,21.81
2023-05-23T22:57:11.965Z,21.80
2023-05-23T22:59:46.001Z,21.79
2023-05-23T23:02:20.006Z,21.77
2023-05-23T23:04:54.069Z,21.75
2023-05-23T23:07:27.766Z,21.70
2023-05-23T23:10:01.187Z,21.67
2023-05-23T23:12:35.202Z,21.66
2023-05-23T23:15:10.635Z,21.65
2023-05-23T23:17:44.691Z,21.62
2023-05-23T23:20:19.775Z,21.62
2023-05-23T23:22:53.453Z,21.62
2023-05-23T23:25:27.607Z,21.59
2023-05-23T23:28:01.566Z,21.58
2023-05-23T23:30:35.639Z,21.56
2023-05-23T23:33:19.044Z,21.54
2023-05-23T23:35:53.183Z,21.52
2023-05-23T23:38:27.034Z,21.52
2023-05-23T23:41:00.956Z,21.51
2023-05-23T23:43:35.368Z,21.50
2023-05-23T23:46:09.355Z,21.48
2023-05-23T23:48:42.988Z,21.44
2023-05-23T23:51:17.376Z,21.41
2023-05-23T23:53:53.302Z,21.39
2023-05-23T23:56:27.933Z,21.37
2023-05-23T23:59:01.607Z,21.36
